sensor_id;sensor_type;location;lat;lon;timestamp;P1;P2;P0
54305;PMS7003;50434;45.188;5.712;2022-09-09T00:00:17;1.00;1.00;0.75
54305;PMS7003;50434;45.188;5.712;2022-09-09T00:02:47;1.25;1.25;1.25
54305;PMS7003;50434;45.188;5.712;2022-09-09T00:05:36;0.75;0.75;0.75
54305;PMS7003;50434;45.188;5.712;2022-09-09T00:08:11;0.75;0.75;0.75
54305;PMS7003;50434;45.188;5.712;2022-09-09T00:10:43;0.25;0.25;0.25
54305;PMS7003;50434;45.188;5.712;2022-09-09T00:13:19;1.00;1.00;1.00
54305;PMS7003;50434;45.188;5.712;2022-09-09T00:18:23;0.75;0.75;0.75
54305;PMS7003;50434;45.188;5.712;2022-09-09T00:20:58;1.80;1.80;1.20
54305;PMS7003;50434;45.188;5.712;2022-09-09T00:23:32;1.25;1.25;0.75
54305;PMS7003;50434;45.188;5.712;2022-09-09T00:28:33;0.75;0.75;0.75
54305;PMS7003;50434;45.188;5.712;2022-09-09T00:31:09;1.25;1.25;1.25
54305;PMS7003;50434;45.188;5.712;2022-09-09T00:33:37;0.75;0.75;0.75
54305;PMS7003;50434;45.188;5.712;2022-09-09T00:36:04;1.75;1.75;0.75
54305;PMS7003;50434;45.188;5.712;2022-09-09T00:38:40;0.75;0.75;0.75
54305;PMS7003;50434;45.188;5.712;2022-09-09T00:44:00;1.50;1.50;1.00
54305;PMS7003;50434;45.188;5.712;2022-09-09T00:46:53;0.75;0.75;0.75
54305;PMS7003;50434;45.188;5.712;2022-09-09T00:57:47;1.25;1.25;0.75
54305;PMS7003;50434;45.188;5.712;2022-09-09T01:00:23;1.00;1.00;1.00
54305;PMS7003;50434;45.188;5.712;2022-09-09T01:05:48;1.25;1.25;1.00
54305;PMS7003;50434;45.188;5.712;2022-09-09T01:10:51;2.25;2.25;1.75
54305;PMS7003;50434;45.188;5.712;2022-09-09T01:13:28;1.75;1.75;1.75
54305;PMS7003;50434;45.188;5.712;2022-09-09T01:15:56;0.75;0.75;0.75
54305;PMS7003;50434;45.188;5.712;2022-09-09T01:18:32;1.75;1.75;1.50
54305;PMS7003;50434;45.188;5.712;2022-09-09T01:28:55;1.25;1.25;1.00
54305;PMS7003;50434;45.188;5.712;2022-09-09T01:31:27;1.00;1.00;1.00
54305;PMS7003;50434;45.188;5.712;2022-09-09T01:33:56;1.75;1.75;0.75
54305;PMS7003;50434;45.188;5.712;2022-09-09T01:36:29;1.67;1.67;1.67
54305;PMS7003;50434;45.188;5.712;2022-09-09T01:38:56;1.75;1.75;0.75
54305;PMS7003;50434;45.188;5.712;2022-09-09T01:41:22;2.00;2.00;2.00
54305;PMS7003;50434;45.188;5.712;2022-09-09T01:43:48;2.00;2.00;2.00
54305;PMS7003;50434;45.188;5.712;2022-09-09T01:46:14;1.75;1.75;1.75
54305;PMS7003;50434;45.188;5.712;2022-09-09T01:48:40;1.00;1.00;1.00
54305;PMS7003;50434;45.188;5.712;2022-09-09T01:51:08;0.75;0.75;0.75
54305;PMS7003;50434;45.188;5.712;2022-09-09T01:53:35;1.75;1.75;1.75
54305;PMS7003;50434;45.188;5.712;2022-09-09T01:59:24;1.75;1.75;1.25
54305;PMS7003;50434;45.188;5.712;2022-09-09T02:02:11;2.75;2.75;2.50
54305;PMS7003;50434;45.188;5.712;2022-09-09T02:04:45;1.75;1.00;0.75
54305;PMS7003;50434;45.188;5.712;2022-09-09T02:09:56;1.75;1.75;1.50
54305;PMS7003;50434;45.188;5.712;2022-09-09T02:12:27;1.75;1.75;1.00
54305;PMS7003;50434;45.188;5.712;2022-09-09T02:15:04;2.25;2.25;1.75
54305;PMS7003;50434;45.188;5.712;2022-09-09T02:17:36;2.75;2.75;2.00
54305;PMS7003;50434;45.188;5.712;2022-09-09T02:20:06;2.50;2.50;1.75
54305;PMS7003;50434;45.188;5.712;2022-09-09T02:22:37;1.75;1.75;1.50
54305;PMS7003;50434;45.188;5.712;2022-09-09T02:25:04;2.00;2.00;1.75
54305;PMS7003;50434;45.188;5.712;2022-09-09T02:27:33;2.50;2.50;1.75
54305;PMS7003;50434;45.188;5.712;2022-09-09T02:29:59;2.00;2.00;1.67
54305;PMS7003;50434;45.188;5.712;2022-09-09T02:32:27;1.00;1.00;0.75
54305;PMS7003;50434;45.188;5.712;2022-09-09T02:35:02;2.75;2.75;2.50
54305;PMS7003;50434;45.188;5.712;2022-09-09T02:37:35;2.00;2.00;1.75
54305;PMS7003;50434;45.188;5.712;2022-09-09T02:40:06;3.00;3.00;2.25
54305;PMS7003;50434;45.188;5.712;2022-09-09T02:42:44;2.75;2.75;1.75
54305;PMS7003;50434;45.188;5.712;2022-09-09T02:45:16;1.75;1.75;1.75
54305;PMS7003;50434;45.188;5.712;2022-09-09T02:47:50;3.00;3.00;1.25
54305;PMS7003;50434;45.188;5.712;2022-09-09T02:50:23;2.00;2.00;1.75
54305;PMS7003;50434;45.188;5.712;2022-09-09T02:58:19;1.50;1.50;0.75
54305;PMS7003;50434;45.188;5.712;2022-09-09T03:00:46;1.75;1.75;1.75
54305;PMS7003;50434;45.188;5.712;2022-09-09T03:03:14;1.75;1.75;1.75
54305;PMS7003;50434;45.188;5.712;2022-09-09T03:05:42;2.75;2.75;1.75
54305;PMS7003;50434;45.188;5.712;2022-09-09T03:08:07;1.75;1.75;1.75
54305;PMS7003;50434;45.188;5.712;2022-09-09T03:10:34;1.75;1.75;1.25
54305;PMS7003;50434;45.188;5.712;2022-09-09T03:13:00;2.00;2.00;2.00
54305;PMS7003;50434;45.188;5.712;2022-09-09T03:15:26;2.00;2.00;2.00
54305;PMS7003;50434;45.188;5.712;2022-09-09T03:17:55;1.75;1.75;1.75
54305;PMS7003;50434;45.188;5.712;2022-09-09T03:20:21;2.75;2.75;1.75
54305;PMS7003;50434;45.188;5.712;2022-09-09T03:22:48;1.00;1.00;0.75
54305;PMS7003;50434;45.188;5.712;2022-09-09T03:25:13;1.00;1.00;1.00
54305;PMS7003;50434;45.188;5.712;2022-09-09T03:27:38;3.00;3.00;3.00
54305;PMS7003;50434;45.188;5.712;2022-09-09T03:30:05;1.75;1.75;1.75
54305;PMS7003;50434;45.188;5.712;2022-09-09T03:32:31;2.00;2.00;2.00
54305;PMS7003;50434;45.188;5.712;2022-09-09T03:34:56;2.00;2.00;2.00
54305;PMS7003;50434;45.188;5.712;2022-09-09T03:37:22;2.00;2.00;1.00
54305;PMS7003;50434;45.188;5.712;2022-09-09T03:39:48;2.00;2.00;1.67
54305;PMS7003;50434;45.188;5.712;2022-09-09T03:42:13;2.00;2.00;1.33
54305;PMS7003;50434;45.188;5.712;2022-09-09T03:44:40;2.00;2.00;1.25
54305;PMS7003;50434;45.188;5.712;2022-09-09T03:47:07;1.75;1.75;1.75
54305;PMS7003;50434;45.188;5.712;2022-09-09T03:49:32;2.00;2.00;1.67
54305;PMS7003;50434;45.188;5.712;2022-09-09T03:51:57;2.67;2.67;2.00
54305;PMS7003;50434;45.188;5.712;2022-09-09T03:54:24;2.75;2.75;2.50
54305;PMS7003;50434;45.188;5.712;2022-09-09T03:56:50;1.75;1.75;1.75
54305;PMS7003;50434;45.188;5.712;2022-09-09T03:59:16;1.33;1.33;1.00
54305;PMS7003;50434;45.188;5.712;2022-09-09T04:01:41;2.00;2.00;2.00
54305;PMS7003;50434;45.188;5.712;2022-09-09T04:04:07;2.33;2.33;2.00
54305;PMS7003;50434;45.188;5.712;2022-09-09T04:06:34;2.00;2.00;1.00
54305;PMS7003;50434;45.188;5.712;2022-09-09T04:09:00;3.00;3.00;2.25
54305;PMS7003;50434;45.188;5.712;2022-09-09T04:11:27;1.75;1.75;1.00
54305;PMS7003;50434;45.188;5.712;2022-09-09T04:13:53;2.33;2.33;2.00
54305;PMS7003;50434;45.188;5.712;2022-09-09T04:16:18;2.00;2.00;1.67
54305;PMS7003;50434;45.188;5.712;2022-09-09T04:18:45;0.75;0.75;0.75
54305;PMS7003;50434;45.188;5.712;2022-09-09T04:21:10;2.00;2.00;2.00
54305;PMS7003;50434;45.188;5.712;2022-09-09T04:23:37;1.75;1.75;1.75
54305;PMS7003;50434;45.188;5.712;2022-09-09T04:26:03;1.00;1.00;1.00
54305;PMS7003;50434;45.188;5.712;2022-09-09T04:28:30;2.25;2.25;1.75
54305;PMS7003;50434;45.188;5.712;2022-09-09T04:31:03;2.00;2.00;1.75
54305;PMS7003;50434;45.188;5.712;2022-09-09T04:33:34;1.75;1.75;1.00
54305;PMS7003;50434;45.188;5.712;2022-09-09T04:35:59;2.00;2.00;2.00
54305;PMS7003;50434;45.188;5.712;2022-09-09T04:38:25;1.33;1.33;1.00
54305;PMS7003;50434;45.188;5.712;2022-09-09T04:40:51;2.33;2.33;2.00
54305;PMS7003;50434;45.188;5.712;2022-09-09T04:43:17;1.75;1.75;1.50
54305;PMS7003;50434;45.188;5.712;2022-09-09T04:45:44;0.75;0.75;0.75
54305;PMS7003;50434;45.188;5.712;2022-09-09T04:48:12;1.75;1.75;1.75
54305;PMS7003;50434;45.188;5.712;2022-09-09T04:50:38;2.67;2.67;2.00
54305;PMS7003;50434;45.188;5.712;2022-09-09T04:53:04;2.00;2.00;2.00
54305;PMS7003;50434;45.188;5.712;2022-09-09T04:55:30;1.00;1.00;0.75
54305;PMS7003;50434;45.188;5.712;2022-09-09T04:57:56;0.75;0.75;0.75
54305;PMS7003;50434;45.188;5.712;2022-09-09T05:00:22;1.75;1.75;1.25
54305;PMS7003;50434;45.188;5.712;2022-09-09T05:02:48;2.00;2.00;1.33
54305;PMS7003;50434;45.188;5.712;2022-09-09T05:05:13;2.00;2.00;1.67
54305;PMS7003;50434;45.188;5.712;2022-09-09T05:07:39;2.00;2.00;1.00
54305;PMS7003;50434;45.188;5.712;2022-09-09T05:10:04;3.00;3.00;2.00
54305;PMS7003;50434;45.188;5.712;2022-09-09T05:12:31;2.00;2.00;1.75
54305;PMS7003;50434;45.188;5.712;2022-09-09T05:14:56;3.00;2.00;2.00
54305;PMS7003;50434;45.188;5.712;2022-09-09T05:17:22;2.00;2.00;1.67
54305;PMS7003;50434;45.188;5.712;2022-09-09T05:19:48;2.00;2.00;2.00
54305;PMS7003;50434;45.188;5.712;2022-09-09T05:22:17;2.00;2.00;1.75
54305;PMS7003;50434;45.188;5.712;2022-09-09T05:24:45;2.00;2.00;1.50
54305;PMS7003;50434;45.188;5.712;2022-09-09T05:27:11;2.00;2.00;2.00
54305;PMS7003;50434;45.188;5.712;2022-09-09T05:29:37;2.75;2.75;2.00
54305;PMS7003;50434;45.188;5.712;2022-09-09T05:32:03;4.00;4.00;3.00
54305;PMS7003;50434;45.188;5.712;2022-09-09T05:34:29;2.00;2.00;2.00
54305;PMS7003;50434;45.188;5.712;2022-09-09T05:36:54;1.33;1.33;1.33
54305;PMS7003;50434;45.188;5.712;2022-09-09T05:39:20;2.67;2.67;2.00
54305;PMS7003;50434;45.188;5.712;2022-09-09T05:41:45;3.00;3.00;2.00
54305;PMS7003;50434;45.188;5.712;2022-09-09T05:44:10;3.67;3.67;3.00
54305;PMS7003;50434;45.188;5.712;2022-09-09T05:46:36;3.00;3.00;2.67
54305;PMS7003;50434;45.188;5.712;2022-09-09T05:49:02;3.67;3.67;2.00
54305;PMS7003;50434;45.188;5.712;2022-09-09T05:51:28;2.75;2.75;1.75
54305;PMS7003;50434;45.188;5.712;2022-09-09T05:53:55;3.00;3.00;2.00
54305;PMS7003;50434;45.188;5.712;2022-09-09T05:56:24;2.25;2.25;2.00
54305;PMS7003;50434;45.188;5.712;2022-09-09T05:58:51;3.00;3.00;2.25
54305;PMS7003;50434;45.188;5.712;2022-09-09T06:01:20;4.00;4.00;3.00
54305;PMS7003;50434;45.188;5.712;2022-09-09T06:03:46;4.00;4.00;2.75
54305;PMS7003;50434;45.188;5.712;2022-09-09T06:06:17;2.25;2.25;2.00
54305;PMS7003;50434;45.188;5.712;2022-09-09T06:08:45;4.00;4.00;3.00
54305;PMS7003;50434;45.188;5.712;2022-09-09T06:11:13;3.00;3.00;2.00
54305;PMS7003;50434;45.188;5.712;2022-09-09T06:13:41;4.25;4.25;3.25
54305;PMS7003;50434;45.188;5.712;2022-09-09T06:16:10;3.00;3.00;3.00
54305;PMS7003;50434;45.188;5.712;2022-09-09T06:18:37;5.00;5.00;3.50
54305;PMS7003;50434;45.188;5.712;2022-09-09T06:21:04;8.00;8.00;5.00
54305;PMS7003;50434;45.188;5.712;2022-09-09T06:23:31;4.25;4.25;3.50
54305;PMS7003;50434;45.188;5.712;2022-09-09T06:26:02;2.75;2.75;2.00
54305;PMS7003;50434;45.188;5.712;2022-09-09T06:28:32;4.00;4.00;3.00
54305;PMS7003;50434;45.188;5.712;2022-09-09T06:30:59;5.75;5.75;4.00
54305;PMS7003;50434;45.188;5.712;2022-09-09T06:33:25;5.50;5.50;4.50
54305;PMS7003;50434;45.188;5.712;2022-09-09T06:35:51;4.50;4.50;3.50
54305;PMS7003;50434;45.188;5.712;2022-09-09T06:38:18;10.00;10.00;6.75
54305;PMS7003;50434;45.188;5.712;2022-09-09T06:40:50;4.00;4.00;3.67
54305;PMS7003;50434;45.188;5.712;2022-09-09T06:43:20;4.00;4.00;4.00
54305;PMS7003;50434;45.188;5.712;2022-09-09T06:48:29;2.75;2.75;2.00
54305;PMS7003;50434;45.188;5.712;2022-09-09T06:53:31;3.50;3.50;2.75
54305;PMS7003;50434;45.188;5.712;2022-09-09T06:56:01;4.00;4.00;3.50
54305;PMS7003;50434;45.188;5.712;2022-09-09T06:58:29;2.50;2.50;2.00
54305;PMS7003;50434;45.188;5.712;2022-09-09T07:01:04;3.00;3.00;2.00
54305;PMS7003;50434;45.188;5.712;2022-09-09T07:03:31;1.75;1.75;1.50
54305;PMS7003;50434;45.188;5.712;2022-09-09T07:05:57;2.00;2.00;2.00
54305;PMS7003;50434;45.188;5.712;2022-09-09T07:08:23;3.00;3.00;3.00
54305;PMS7003;50434;45.188;5.712;2022-09-09T07:10:49;3.50;3.50;2.25
54305;PMS7003;50434;45.188;5.712;2022-09-09T07:13:18;3.75;3.75;2.75
54305;PMS7003;50434;45.188;5.712;2022-09-09T07:15:50;2.75;2.75;2.75
54305;PMS7003;50434;45.188;5.712;2022-09-09T07:18:16;4.67;4.67;3.33
54305;PMS7003;50434;45.188;5.712;2022-09-09T07:20:41;5.00;5.00;4.00
54305;PMS7003;50434;45.188;5.712;2022-09-09T07:23:06;7.33;7.33;6.00
54305;PMS7003;50434;45.188;5.712;2022-09-09T07:25:32;3.00;3.00;3.00
54305;PMS7003;50434;45.188;5.712;2022-09-09T07:27:57;3.67;3.67;3.00
54305;PMS7003;50434;45.188;5.712;2022-09-09T07:30:22;5.00;5.00;3.00
54305;PMS7003;50434;45.188;5.712;2022-09-09T07:32:50;10.00;10.00;8.67
54305;PMS7003;50434;45.188;5.712;2022-09-09T07:35:16;4.50;4.50;2.75
54305;PMS7003;50434;45.188;5.712;2022-09-09T07:37:41;3.00;3.00;3.00
54305;PMS7003;50434;45.188;5.712;2022-09-09T07:40:07;3.00;3.00;2.67
54305;PMS7003;50434;45.188;5.712;2022-09-09T07:42:33;3.00;3.00;2.33
54305;PMS7003;50434;45.188;5.712;2022-09-09T07:44:58;4.00;4.00;3.00
54305;PMS7003;50434;45.188;5.712;2022-09-09T07:47:24;3.00;3.00;2.33
54305;PMS7003;50434;45.188;5.712;2022-09-09T07:49:49;3.33;3.33;2.33
54305;PMS7003;50434;45.188;5.712;2022-09-09T07:52:15;4.00;4.00;3.00
54305;PMS7003;50434;45.188;5.712;2022-09-09T07:54:41;3.75;3.75;2.75
54305;PMS7003;50434;45.188;5.712;2022-09-09T07:57:06;3.00;3.00;3.00
54305;PMS7003;50434;45.188;5.712;2022-09-09T07:59:32;4.00;4.00;4.00
54305;PMS7003;50434;45.188;5.712;2022-09-09T08:01:58;3.00;3.00;3.00
54305;PMS7003;50434;45.188;5.712;2022-09-09T08:04:24;3.00;3.00;3.00
54305;PMS7003;50434;45.188;5.712;2022-09-09T08:06:55;2.75;2.75;2.75
54305;PMS7003;50434;45.188;5.712;2022-09-09T08:09:22;3.50;3.50;2.25
54305;PMS7003;50434;45.188;5.712;2022-09-09T08:11:53;2.25;2.25;1.75
54305;PMS7003;50434;45.188;5.712;2022-09-09T08:14:21;3.00;3.00;3.00
54305;PMS7003;50434;45.188;5.712;2022-09-09T08:16:48;2.75;2.75;2.50
54305;PMS7003;50434;45.188;5.712;2022-09-09T08:19:15;3.50;3.50;3.50
54305;PMS7003;50434;45.188;5.712;2022-09-09T08:21:41;2.75;2.75;1.75
54305;PMS7003;50434;45.188;5.712;2022-09-09T08:24:09;3.50;3.50;2.75
54305;PMS7003;50434;45.188;5.712;2022-09-09T08:26:37;2.75;2.75;2.00
54305;PMS7003;50434;45.188;5.712;2022-09-09T08:29:04;2.50;2.50;2.00
54305;PMS7003;50434;45.188;5.712;2022-09-09T08:31:35;5.00;5.00;2.75
54305;PMS7003;50434;45.188;5.712;2022-09-09T08:34:02;3.25;3.25;1.75
54305;PMS7003;50434;45.188;5.712;2022-09-09T08:36:29;2.75;2.75;2.50
54305;PMS7003;50434;45.188;5.712;2022-09-09T08:38:58;2.75;2.75;2.25
54305;PMS7003;50434;45.188;5.712;2022-09-09T08:57:52;3.75;3.75;3.75
54305;PMS7003;50434;45.188;5.712;2022-09-09T09:00:20;3.00;3.00;2.00
54305;PMS7003;50434;45.188;5.712;2022-09-09T09:08:07;2.00;2.00;1.67
54305;PMS7003;50434;45.188;5.712;2022-09-09T09:10:50;2.50;2.50;1.50
54305;PMS7003;50434;45.188;5.712;2022-09-09T09:13:34;1.00;1.00;0.75
54305;PMS7003;50434;45.188;5.712;2022-09-09T09:19:05;0.75;0.75;0.75
54305;PMS7003;50434;45.188;5.712;2022-09-09T09:24:36;0.75;0.75;0.75
54305;PMS7003;50434;45.188;5.712;2022-09-09T09:27:40;0.00;0.00;0.00
54305;PMS7003;50434;45.188;5.712;2022-09-09T09:30:18;1.00;1.00;1.00
54305;PMS7003;50434;45.188;5.712;2022-09-09T09:33:00;0.00;0.00;0.00
54305;PMS7003;50434;45.188;5.712;2022-09-09T09:35:30;0.40;0.40;0.40
54305;PMS7003;50434;45.188;5.712;2022-09-09T09:37:56;0.33;0.33;0.33
54305;PMS7003;50434;45.188;5.712;2022-09-09T09:40:22;1.00;1.00;1.00
54305;PMS7003;50434;45.188;5.712;2022-09-09T09:42:55;0.00;0.00;0.00
54305;PMS7003;50434;45.188;5.712;2022-09-09T09:45:28;0.80;0.80;0.80
54305;PMS7003;50434;45.188;5.712;2022-09-09T09:48:03;0.40;0.40;0.20
54305;PMS7003;50434;45.188;5.712;2022-09-09T09:50:31;0.00;0.00;0.00
54305;PMS7003;50434;45.188;5.712;2022-09-09T09:53:02;0.80;0.80;0.00
54305;PMS7003;50434;45.188;5.712;2022-09-09T09:55:32;0.40;0.40;0.20
54305;PMS7003;50434;45.188;5.712;2022-09-09T09:58:03;0.20;0.20;0.20
54305;PMS7003;50434;45.188;5.712;2022-09-09T10:00:30;0.80;0.80;0.80
54305;PMS7003;50434;45.188;5.712;2022-09-09T10:02:56;2.00;2.00;2.00
54305;PMS7003;50434;45.188;5.712;2022-09-09T10:05:22;1.00;1.00;0.00
54305;PMS7003;50434;45.188;5.712;2022-09-09T10:13:20;0.80;0.80;0.60
54305;PMS7003;50434;45.188;5.712;2022-09-09T10:16:12;2.25;2.25;1.75
54305;PMS7003;50434;45.188;5.712;2022-09-09T10:18:55;1.00;1.00;0.80
54305;PMS7003;50434;45.188;5.712;2022-09-09T10:26:51;0.80;0.80;0.80
54305;PMS7003;50434;45.188;5.712;2022-09-09T10:37:38;0.00;0.00;0.00
54305;PMS7003;50434;45.188;5.712;2022-09-09T10:42:55;1.20;1.20;0.80
54305;PMS7003;50434;45.188;5.712;2022-09-09T10:51:28;1.80;1.80;1.80
54305;PMS7003;50434;45.188;5.712;2022-09-09T10:54:05;0.80;0.80;0.60
54305;PMS7003;50434;45.188;5.712;2022-09-09T10:56:56;0.20;0.20;0.20
54305;PMS7003;50434;45.188;5.712;2022-09-09T10:59:29;0.20;0.20;0.20
54305;PMS7003;50434;45.188;5.712;2022-09-09T11:04:42;0.20;0.20;0.00
54305;PMS7003;50434;45.188;5.712;2022-09-09T11:07:17;0.80;0.80;0.80
54305;PMS7003;50434;45.188;5.712;2022-09-09T11:09:52;1.20;1.20;0.40
54305;PMS7003;50434;45.188;5.712;2022-09-09T11:12:24;0.80;0.80;0.80
54305;PMS7003;50434;45.188;5.712;2022-09-09T11:14:59;0.20;0.20;0.20
54305;PMS7003;50434;45.188;5.712;2022-09-09T11:17:40;1.80;1.80;1.80
54305;PMS7003;50434;45.188;5.712;2022-09-09T11:20:12;1.20;1.20;0.80
54305;PMS7003;50434;45.188;5.712;2022-09-09T11:22:53;0.80;0.80;0.80
54305;PMS7003;50434;45.188;5.712;2022-09-09T11:25:35;0.80;0.80;0.80
54305;PMS7003;50434;45.188;5.712;2022-09-09T11:39:09;0.80;0.80;0.80
54305;PMS7003;50434;45.188;5.712;2022-09-09T11:44:39;0.80;0.80;0.80
54305;PMS7003;50434;45.188;5.712;2022-09-09T11:47:20;0.80;0.80;0.80
54305;PMS7003;50434;45.188;5.712;2022-09-09T11:49:51;0.00;0.00;0.00
54305;PMS7003;50434;45.188;5.712;2022-09-09T11:52:22;0.00;0.00;0.00
54305;PMS7003;50434;45.188;5.712;2022-09-09T11:55:07;0.80;0.80;0.80
54305;PMS7003;50434;45.188;5.712;2022-09-09T11:57:37;1.20;1.20;0.80
54305;PMS7003;50434;45.188;5.712;2022-09-09T12:00:03;0.00;0.00;0.00
54305;PMS7003;50434;45.188;5.712;2022-09-09T12:02:30;0.00;0.00;0.00
54305;PMS7003;50434;45.188;5.712;2022-09-09T12:04:58;1.25;1.25;0.75
54305;PMS7003;50434;45.188;5.712;2022-09-09T12:12:34;1.00;1.00;1.00
54305;PMS7003;50434;45.188;5.712;2022-09-09T12:17:37;0.80;0.80;0.80
54305;PMS7003;50434;45.188;5.712;2022-09-09T12:25:40;0.80;0.80;0.80
54305;PMS7003;50434;45.188;5.712;2022-09-09T12:28:15;0.00;0.00;0.00
54305;PMS7003;50434;45.188;5.712;2022-09-09T12:33:22;0.80;0.80;0.80
54305;PMS7003;50434;45.188;5.712;2022-09-09T12:35:53;0.00;0.00;0.00
54305;PMS7003;50434;45.188;5.712;2022-09-09T12:38:36;0.20;0.20;0.20
54305;PMS7003;50434;45.188;5.712;2022-09-09T12:41:03;0.20;0.20;0.20
54305;PMS7003;50434;45.188;5.712;2022-09-09T12:43:29;0.00;0.00;0.00
54305;PMS7003;50434;45.188;5.712;2022-09-09T12:45:56;1.50;1.50;1.50
54305;PMS7003;50434;45.188;5.712;2022-09-09T12:48:34;0.80;0.80;0.80
54305;PMS7003;50434;45.188;5.712;2022-09-09T12:51:04;0.00;0.00;0.00
54305;PMS7003;50434;45.188;5.712;2022-09-09T12:53:35;0.00;0.00;0.00
54305;PMS7003;50434;45.188;5.712;2022-09-09T12:58:35;0.00;0.00;0.00
54305;PMS7003;50434;45.188;5.712;2022-09-09T13:01:03;0.20;0.20;0.00
54305;PMS7003;50434;45.188;5.712;2022-09-09T13:03:30;0.20;0.20;0.00
54305;PMS7003;50434;45.188;5.712;2022-09-09T13:05:58;0.00;0.00;0.00
54305;PMS7003;50434;45.188;5.712;2022-09-09T13:08:36;0.00;0.00;0.00
54305;PMS7003;50434;45.188;5.712;2022-09-09T13:11:03;0.00;0.00;0.00
54305;PMS7003;50434;45.188;5.712;2022-09-09T13:13:37;0.00;0.00;0.00
54305;PMS7003;50434;45.188;5.712;2022-09-09T13:16:06;3.00;3.00;2.40
54305;PMS7003;50434;45.188;5.712;2022-09-09T13:18:43;0.00;0.00;0.00
54305;PMS7003;50434;45.188;5.712;2022-09-09T13:21:08;0.00;0.00;0.00
54305;PMS7003;50434;45.188;5.712;2022-09-09T13:23:34;0.00;0.00;0.00
54305;PMS7003;50434;45.188;5.712;2022-09-09T13:26:24;0.80;0.80;0.40
54305;PMS7003;50434;45.188;5.712;2022-09-09T13:28:48;0.00;0.00;0.00
54305;PMS7003;50434;45.188;5.712;2022-09-09T13:31:24;0.00;0.00;0.00
54305;PMS7003;50434;45.188;5.712;2022-09-09T13:33:54;0.00;0.00;0.00
54305;PMS7003;50434;45.188;5.712;2022-09-09T13:36:29;0.00;0.00;0.00
54305;PMS7003;50434;45.188;5.712;2022-09-09T13:38:58;0.20;0.20;0.00
54305;PMS7003;50434;45.188;5.712;2022-09-09T13:41:25;0.00;0.00;0.00
54305;PMS7003;50434;45.188;5.712;2022-09-09T13:43:55;0.00;0.00;0.00
54305;PMS7003;50434;45.188;5.712;2022-09-09T13:46:35;0.00;0.00;0.00
54305;PMS7003;50434;45.188;5.712;2022-09-09T13:49:03;0.00;0.00;0.00
54305;PMS7003;50434;45.188;5.712;2022-09-09T13:51:49;0.00;0.00;0.00
54305;PMS7003;50434;45.188;5.712;2022-09-09T13:54:18;0.00;0.00;0.00
54305;PMS7003;50434;45.188;5.712;2022-09-09T13:56:45;0.00;0.00;0.00
54305;PMS7003;50434;45.188;5.712;2022-09-09T13:59:15;0.20;0.20;0.00
54305;PMS7003;50434;45.188;5.712;2022-09-09T14:01:44;0.00;0.00;0.00
54305;PMS7003;50434;45.188;5.712;2022-09-09T14:04:10;0.00;0.00;0.00
54305;PMS7003;50434;45.188;5.712;2022-09-09T14:06:36;0.00;0.00;0.00
54305;PMS7003;50434;45.188;5.712;2022-09-09T14:09:03;0.00;0.00;0.00
54305;PMS7003;50434;45.188;5.712;2022-09-09T14:11:30;0.00;0.00;0.00
54305;PMS7003;50434;45.188;5.712;2022-09-09T14:13:55;0.00;0.00;0.00
54305;PMS7003;50434;45.188;5.712;2022-09-09T14:16:21;0.00;0.00;0.00
54305;PMS7003;50434;45.188;5.712;2022-09-09T14:18:46;0.00;0.00;0.00
54305;PMS7003;50434;45.188;5.712;2022-09-09T14:21:12;0.00;0.00;0.00
54305;PMS7003;50434;45.188;5.712;2022-09-09T14:23:38;0.25;0.25;0.25
54305;PMS7003;50434;45.188;5.712;2022-09-09T14:26:04;0.00;0.00;0.00
54305;PMS7003;50434;45.188;5.712;2022-09-09T14:28:30;0.40;0.40;0.40
54305;PMS7003;50434;45.188;5.712;2022-09-09T14:30:58;0.00;0.00;0.00
54305;PMS7003;50434;45.188;5.712;2022-09-09T14:33:25;0.00;0.00;0.00
54305;PMS7003;50434;45.188;5.712;2022-09-09T14:35:55;1.00;1.00;1.00
54305;PMS7003;50434;45.188;5.712;2022-09-09T14:38:35;0.20;0.20;0.20
54305;PMS7003;50434;45.188;5.712;2022-09-09T14:41:09;0.00;0.00;0.00
54305;PMS7003;50434;45.188;5.712;2022-09-09T14:43:39;0.00;0.00;0.00
54305;PMS7003;50434;45.188;5.712;2022-09-09T14:46:09;0.00;0.00;0.00
54305;PMS7003;50434;45.188;5.712;2022-09-09T14:48:37;0.00;0.00;0.00
54305;PMS7003;50434;45.188;5.712;2022-09-09T14:51:12;0.00;0.00;0.00
54305;PMS7003;50434;45.188;5.712;2022-09-09T14:53:40;0.00;0.00;0.00
54305;PMS7003;50434;45.188;5.712;2022-09-09T14:58:36;0.00;0.00;0.00
54305;PMS7003;50434;45.188;5.712;2022-09-09T15:01:06;0.00;0.00;0.00
54305;PMS7003;50434;45.188;5.712;2022-09-09T15:03:35;0.00;0.00;0.00
54305;PMS7003;50434;45.188;5.712;2022-09-09T15:06:08;0.00;0.00;0.00
54305;PMS7003;50434;45.188;5.712;2022-09-09T15:08:39;0.20;0.00;0.00
54305;PMS7003;50434;45.188;5.712;2022-09-09T15:11:06;0.00;0.00;0.00
54305;PMS7003;50434;45.188;5.712;2022-09-09T15:13:34;0.00;0.00;0.00
54305;PMS7003;50434;45.188;5.712;2022-09-09T15:16:05;0.00;0.00;0.00
54305;PMS7003;50434;45.188;5.712;2022-09-09T15:18:34;0.00;0.00;0.00
54305;PMS7003;50434;45.188;5.712;2022-09-09T15:21:01;0.00;0.00;0.00
54305;PMS7003;50434;45.188;5.712;2022-09-09T15:23:33;0.00;0.00;0.00
54305;PMS7003;50434;45.188;5.712;2022-09-09T15:25:59;0.20;0.20;0.20
54305;PMS7003;50434;45.188;5.712;2022-09-09T15:28:25;0.00;0.00;0.00
54305;PMS7003;50434;45.188;5.712;2022-09-09T15:30:51;0.00;0.00;0.00
54305;PMS7003;50434;45.188;5.712;2022-09-09T15:33:18;0.00;0.00;0.00
54305;PMS7003;50434;45.188;5.712;2022-09-09T15:35:44;0.00;0.00;0.00
54305;PMS7003;50434;45.188;5.712;2022-09-09T15:38:10;0.00;0.00;0.00
54305;PMS7003;50434;45.188;5.712;2022-09-09T15:40:38;0.00;0.00;0.00
54305;PMS7003;50434;45.188;5.712;2022-09-09T15:43:06;0.00;0.00;0.00
54305;PMS7003;50434;45.188;5.712;2022-09-09T15:45:31;0.00;0.00;0.00
54305;PMS7003;50434;45.188;5.712;2022-09-09T15:47:58;0.00;0.00;0.00
54305;PMS7003;50434;45.188;5.712;2022-09-09T15:50:25;0.00;0.00;0.00
54305;PMS7003;50434;45.188;5.712;2022-09-09T15:52:51;0.00;0.00;0.00
54305;PMS7003;50434;45.188;5.712;2022-09-09T15:55:17;0.00;0.00;0.00
54305;PMS7003;50434;45.188;5.712;2022-09-09T15:57:45;0.00;0.00;0.00
54305;PMS7003;50434;45.188;5.712;2022-09-09T16:00:11;0.25;0.25;0.25
54305;PMS7003;50434;45.188;5.712;2022-09-09T16:02:38;0.00;0.00;0.00
54305;PMS7003;50434;45.188;5.712;2022-09-09T16:05:03;0.00;0.00;0.00
54305;PMS7003;50434;45.188;5.712;2022-09-09T16:07:29;0.00;0.00;0.00
54305;PMS7003;50434;45.188;5.712;2022-09-09T16:09:55;0.25;0.25;0.00
54305;PMS7003;50434;45.188;5.712;2022-09-09T16:12:20;0.00;0.00;0.00
54305;PMS7003;50434;45.188;5.712;2022-09-09T16:14:46;0.00;0.00;0.00
54305;PMS7003;50434;45.188;5.712;2022-09-09T16:17:12;0.00;0.00;0.00
54305;PMS7003;50434;45.188;5.712;2022-09-09T16:19:37;0.00;0.00;0.00
54305;PMS7003;50434;45.188;5.712;2022-09-09T16:22:03;0.00;0.00;0.00
54305;PMS7003;50434;45.188;5.712;2022-09-09T16:24:29;0.00;0.00;0.00
54305;PMS7003;50434;45.188;5.712;2022-09-09T16:26:55;0.00;0.00;0.00
54305;PMS7003;50434;45.188;5.712;2022-09-09T16:29:20;0.00;0.00;0.00
54305;PMS7003;50434;45.188;5.712;2022-09-09T16:31:47;0.00;0.00;0.00
54305;PMS7003;50434;45.188;5.712;2022-09-09T16:34:15;0.00;0.00;0.00
54305;PMS7003;50434;45.188;5.712;2022-09-09T16:36:43;0.00;0.00;0.00
54305;PMS7003;50434;45.188;5.712;2022-09-09T16:39:12;0.00;0.00;0.00
54305;PMS7003;50434;45.188;5.712;2022-09-09T16:41:40;0.00;0.00;0.00
54305;PMS7003;50434;45.188;5.712;2022-09-09T16:44:07;0.00;0.00;0.00
54305;PMS7003;50434;45.188;5.712;2022-09-09T16:46:35;0.00;0.00;0.00
54305;PMS7003;50434;45.188;5.712;2022-09-09T16:49:07;0.00;0.00;0.00
54305;PMS7003;50434;45.188;5.712;2022-09-09T16:51:35;0.40;0.40;0.00
54305;PMS7003;50434;45.188;5.712;2022-09-09T16:54:03;0.40;0.40;0.40